Time;durP1;ratioP1;P1;durP2;ratioP2;P2;SDS_P1;SDS_P2;PMS_P1;PMS_P2;Temp;Humidity;BMP_temperature;BMP_pressure;BME280_temperature;BME280_humidity;BME280_pressure;Samples;Min_cycle;Max_cycle;Signal;HPM_P1;HPM_P2
2022/03/03 00:01:11;;;;;;;;;;;2.50;99.90;;;;;;5117338;28;19950;-72
2022/03/03 00:03:37;;;;;;;;;;;2.10;99.90;;;;;;5143406;27;19966;-71
2022/03/03 00:06:02;;;;;;;;;;;2.00;99.90;;;;;;5137954;27;20466;-73
2022/03/03 00:08:28;;;;;;;;;;;2.00;99.90;;;;;;5137788;27;19930;-71
2022/03/03 00:10:53;;;;;;;;;;;3.00;99.90;;;;;;5137635;27;19927;-71
2022/03/03 00:13:19;;;;;;;;;;;3.90;99.90;;;;;;5137676;27;20410;-71
2022/03/03 00:15:45;;;;;;;;;;;3.40;99.90;;;;;;5137561;27;19928;-73
2022/03/03 00:18:10;;;;;;;;;;;2.00;99.90;;;;;;5119307;27;20278;-71
2022/03/03 00:20:36;;;;;;;;;;;1.90;99.90;;;;;;5119340;27;20369;-72
2022/03/03 00:23:01;;;;;;;;;;;2.90;99.90;;;;;;5119444;27;19924;-71
2022/03/03 00:25:27;;;;;;;;;;;1.90;99.90;;;;;;5137564;27;19930;-74
2022/03/03 00:27:53;;;;;;;;;;;2.40;99.90;;;;;;5137422;27;19923;-71
2022/03/03 00:30:18;;;;;;;;;;;3.40;99.90;;;;;;5136778;27;20382;-71
2022/03/03 00:32:44;;;;;;;;;;;3.70;99.90;;;;;;5137259;27;20026;-75
2022/03/03 00:35:10;;;;;;;;;;;1.90;99.90;;;;;;5137212;27;19923;-72
2022/03/03 00:37:36;;;;;;;;;;;3.20;99.90;;;;;;5137220;27;20028;-70
2022/03/03 00:40:03;;;;;;;;;;;2.60;99.90;;;;;;5137252;27;19923;-71
2022/03/03 00:42:28;;;;;;;;;;;3.80;99.90;;;;;;5118851;27;19924;-71
2022/03/03 00:44:54;;;;;;;;;;;1.80;99.90;;;;;;5137164;27;19935;-71
2022/03/03 00:47:19;;;;;;;;;;;2.90;99.90;;;;;;5137024;27;19935;-70
2022/03/03 00:49:45;;;;;;;;;;;2.80;99.90;;;;;;5136905;27;19930;-68
2022/03/03 00:52:10;;;;;;;;;;;1.70;99.90;;;;;;5136969;27;19967;-68
2022/03/03 00:54:36;;;;;;;;;;;1.70;99.90;;;;;;5136805;27;19924;-71
2022/03/03 00:57:02;;;;;;;;;;;3.60;99.90;;;;;;5136833;27;20320;-68
2022/03/03 00:59:27;;;;;;;;;;;1.70;99.90;;;;;;5136889;27;20344;-71
2022/03/03 01:01:53;;;;;;;;;;;2.10;99.90;;;;;;5136784;27;19924;-68
2022/03/03 01:04:19;;;;;;;;;;;3.10;99.90;;;;;;5120931;27;19927;-69
2022/03/03 01:06:45;;;;;;;;;;;2.20;99.90;;;;;;5115814;28;20058;-69
2022/03/03 01:09:10;;;;;;;;;;;2.70;99.90;;;;;;5116205;28;19979;-68
2022/03/03 01:11:36;;;;;;;;;;;1.70;99.90;;;;;;5115901;28;20333;-69
2022/03/03 01:14:02;;;;;;;;;;;1.60;99.90;;;;;;5116008;28;19945;-69
2022/03/03 01:16:27;;;;;;;;;;;1.70;99.90;;;;;;5115899;28;19931;-68
2022/03/03 01:18:53;;;;;;;;;;;2.10;99.90;;;;;;5115667;28;20298;-68
2022/03/03 01:21:18;;;;;;;;;;;1.60;99.90;;;;;;5115893;28;19924;-70
2022/03/03 01:23:44;;;;;;;;;;;3.00;99.90;;;;;;5115740;28;20022;-68
2022/03/03 01:26:10;;;;;;;;;;;2.30;99.90;;;;;;5115815;28;19924;-69
2022/03/03 01:28:35;;;;;;;;;;;2.80;99.90;;;;;;5115651;28;19923;-72
2022/03/03 01:31:01;;;;;;;;;;;2.00;99.90;;;;;;5080279;28;19924;-69
2022/03/03 01:33:26;;;;;;;;;;;2.10;99.90;;;;;;5115464;28;19924;-69
2022/03/03 01:35:52;;;;;;;;;;;1.50;99.90;;;;;;5115247;28;20400;-68
2022/03/03 01:38:17;;;;;;;;;;;1.50;99.90;;;;;;5097386;28;19924;-69
2022/03/03 01:40:43;;;;;;;;;;;1.50;99.90;;;;;;5097621;28;20014;-71
2022/03/03 01:43:09;;;;;;;;;;;1.50;99.90;;;;;;5096432;28;19923;-70
2022/03/03 01:45:35;;;;;;;;;;;1.50;99.90;;;;;;5131531;27;19930;-73
2022/03/03 01:48:00;;;;;;;;;;;1.50;99.90;;;;;;5115229;28;19924;-69
2022/03/03 01:50:26;;;;;;;;;;;0.80;99.90;;;;;;5114991;28;20426;-68
2022/03/03 01:52:52;;;;;;;;;;;1.40;99.90;;;;;;5114012;28;19953;-68
2022/03/03 01:55:18;;;;;;;;;;;3.40;99.90;;;;;;5115245;28;19949;-68
2022/03/03 01:57:43;;;;;;;;;;;2.90;99.90;;;;;;5114972;28;19931;-68
2022/03/03 02:00:09;;;;;;;;;;;1.30;99.90;;;;;;5115117;28;19930;-69
2022/03/03 02:02:35;;;;;;;;;;;1.30;99.90;;;;;;5096639;28;19931;-71
2022/03/03 02:05:00;;;;;;;;;;;1.30;99.90;;;;;;5095971;28;19950;-72
2022/03/03 02:07:26;;;;;;;;;;;2.90;99.90;;;;;;5114772;28;19924;-68
2022/03/03 02:09:51;;;;;;;;;;;1.60;99.90;;;;;;5096883;28;19928;-69
2022/03/03 02:12:17;;;;;;;;;;;1.70;99.90;;;;;;5114865;28;19924;-71
2022/03/03 02:14:44;;;;;;;;;;;0.90;99.90;;;;;;5131008;27;19931;-71
2022/03/03 02:17:10;;;;;;;;;;;2.00;99.90;;;;;;5114669;28;19930;-71
2022/03/03 02:19:36;;;;;;;;;;;1.20;99.90;;;;;;5114497;28;19931;-71
2022/03/03 02:22:01;;;;;;;;;;;1.80;99.90;;;;;;5114388;28;19928;-71
2022/03/03 02:24:27;;;;;;;;;;;1.20;99.90;;;;;;5114403;28;19979;-69
2022/03/03 02:26:54;;;;;;;;;;;1.10;99.90;;;;;;5114587;28;20026;-69
2022/03/03 02:29:19;;;;;;;;;;;2.70;99.90;;;;;;5114473;28;19931;-68
2022/03/03 02:31:45;;;;;;;;;;;1.60;99.90;;;;;;5114245;28;19927;-68
2022/03/03 02:34:11;;;;;;;;;;;2.20;99.90;;;;;;5114469;28;19924;-68
2022/03/03 02:36:37;;;;;;;;;;;0.30;99.90;;;;;;5114345;28;19924;-68
2022/03/03 02:39:04;;;;;;;;;;;3.10;99.90;;;;;;5114240;28;20268;-68
2022/03/03 02:41:29;;;;;;;;;;;1.10;99.90;;;;;;5096336;28;20022;-70
2022/03/03 02:43:56;;;;;;;;;;;1.10;99.90;;;;;;5096113;28;19924;-69
2022/03/03 02:46:21;;;;;;;;;;;1.00;99.90;;;;;;5096482;28;19924;-68
2022/03/03 02:48:47;;;;;;;;;;;1.10;99.90;;;;;;5095850;28;20304;-68
2022/03/03 02:51:13;;;;;;;;;;;0.60;99.90;;;;;;5114133;28;19971;-72
2022/03/03 02:53:39;;;;;;;;;;;2.40;99.90;;;;;;5113735;28;19924;-68
2022/03/03 02:56:05;;;;;;;;;;;1.10;99.90;;;;;;5130425;27;19978;-68
2022/03/03 02:58:31;;;;;;;;;;;2.50;99.90;;;;;;5096040;28;19924;-70
2022/03/03 03:00:57;;;;;;;;;;;0.90;99.90;;;;;;5114201;28;19923;-70
2022/03/03 03:03:22;;;;;;;;;;;1.30;99.90;;;;;;5114001;28;20268;-69
2022/03/03 03:05:48;;;;;;;;;;;0.90;99.90;;;;;;5113993;28;19924;-69
2022/03/03 03:08:14;;;;;;;;;;;2.10;99.90;;;;;;5095972;28;19934;-68
2022/03/03 03:10:40;;;;;;;;;;;0.90;99.90;;;;;;5130055;28;20081;-70
2022/03/03 03:13:06;;;;;;;;;;;1.90;99.90;;;;;;5114082;28;19931;-69
2022/03/03 03:15:31;;;;;;;;;;;1.00;99.90;;;;;;5113858;28;20414;-68
2022/03/03 03:18:09;;;;;;;;;;;0.70;99.90;;;;;;5114055;28;19924;-72
2022/03/03 03:20:35;;;;;;;;;;;0.90;99.90;;;;;;5114123;28;20359;-69
2022/03/03 03:23:01;;;;;;;;;;;2.70;99.90;;;;;;5113664;28;19924;-68
2022/03/03 03:25:27;;;;;;;;;;;0.80;99.90;;;;;;5114028;28;19930;-68
2022/03/03 03:27:52;;;;;;;;;;;0.80;99.90;;;;;;5114034;28;19923;-69
2022/03/03 03:30:18;;;;;;;;;;;1.50;99.90;;;;;;5130109;28;19979;-69
2022/03/03 03:32:43;;;;;;;;;;;0.80;99.90;;;;;;5113925;28;19958;-70
2022/03/03 03:35:09;;;;;;;;;;;1.50;99.90;;;;;;5113887;28;19924;-71
2022/03/03 03:37:38;;;;;;;;;;;0.80;99.90;;;;;;5113565;28;19924;-72
2022/03/03 03:40:04;;;;;;;;;;;0.80;99.90;;;;;;5113762;28;19927;-68
2022/03/03 03:42:30;;;;;;;;;;;0.80;99.90;;;;;;5130115;28;19924;-68
2022/03/03 03:44:55;;;;;;;;;;;0.80;99.90;;;;;;5129963;28;19927;-70
2022/03/03 03:47:21;;;;;;;;;;;0.80;99.90;;;;;;5113723;28;19998;-69
2022/03/03 03:49:46;;;;;;;;;;;0.80;99.90;;;;;;5095643;28;20302;-68
2022/03/03 03:52:12;;;;;;;;;;;2.10;99.90;;;;;;5113619;28;19923;-70
2022/03/03 03:54:38;;;;;;;;;;;0.80;99.90;;;;;;5095700;28;19931;-69
2022/03/03 03:57:04;;;;;;;;;;;2.80;99.90;;;;;;5113628;28;20294;-69
2022/03/03 03:59:30;;;;;;;;;;;0.80;99.90;;;;;;5095778;28;20385;-70
2022/03/03 04:01:55;;;;;;;;;;;2.20;99.90;;;;;;5113599;28;20010;-68
2022/03/03 04:04:21;;;;;;;;;;;0.80;99.90;;;;;;5129774;28;19923;-68
2022/03/03 04:06:46;;;;;;;;;;;0.80;99.90;;;;;;5136553;27;19930;-71
2022/03/03 04:09:12;;;;;;;;;;;0.80;99.90;;;;;;5119159;27;19923;-68
2022/03/03 04:11:38;;;;;;;;;;;0.40;99.90;;;;;;5137844;27;19923;-68
2022/03/03 04:14:04;;;;;;;;;;;0.80;99.90;;;;;;5137804;27;19928;-68
2022/03/03 04:16:29;;;;;;;;;;;2.00;99.90;;;;;;5102376;27;19923;-72
2022/03/03 04:18:55;;;;;;;;;;;3.00;99.90;;;;;;5137663;27;19974;-70
2022/03/03 04:21:20;;;;;;;;;;;1.30;99.90;;;;;;5119145;27;19924;-69
2022/03/03 04:23:46;;;;;;;;;;;1.90;99.90;;;;;;5137293;27;19923;-68
2022/03/03 04:26:12;;;;;;;;;;;2.20;99.90;;;;;;5137354;27;19993;-68
2022/03/03 04:28:37;;;;;;;;;;;1.10;99.90;;;;;;5137473;27;20021;-68
2022/03/03 04:31:03;;;;;;;;;;;0.60;99.90;;;;;;5137469;27;19923;-70
2022/03/03 04:33:29;;;;;;;;;;;2.00;99.90;;;;;;5137340;27;20031;-72
2022/03/03 04:35:55;;;;;;;;;;;0.60;99.90;;;;;;5118487;27;19927;-70
2022/03/03 04:38:21;;;;;;;;;;;2.70;99.90;;;;;;5137087;27;19924;-71
2022/03/03 04:40:46;;;;;;;;;;;2.30;99.90;;;;;;5153343;27;19930;-74
2022/03/03 04:43:12;;;;;;;;;;;2.50;99.90;;;;;;5137312;27;20320;-71
2022/03/03 04:45:37;;;;;;;;;;;0.60;99.90;;;;;;5137126;27;19924;-71
2022/03/03 04:48:03;;;;;;;;;;;-0.50;99.90;;;;;;5137089;27;19930;-70
2022/03/03 04:50:30;;;;;;;;;;;0.60;99.90;;;;;;5153459;27;19924;-71
2022/03/03 04:52:56;;;;;;;;;;;0.60;99.90;;;;;;5118512;27;19930;-71
2022/03/03 04:55:21;;;;;;;;;;;0.50;99.90;;;;;;5136813;27;20006;-70
2022/03/03 04:57:48;;;;;;;;;;;0.50;99.90;;;;;;5136570;27;19923;-71
2022/03/03 05:00:13;;;;;;;;;;;0.60;99.90;;;;;;5136869;27;20294;-74
2022/03/03 05:02:39;;;;;;;;;;;0.60;99.90;;;;;;5118538;27;19930;-70
2022/03/03 05:05:05;;;;;;;;;;;0.50;99.90;;;;;;5118763;27;19924;-71
2022/03/03 05:07:31;;;;;;;;;;;0.60;99.90;;;;;;5136522;27;19931;-71
2022/03/03 05:09:56;;;;;;;;;;;0.60;99.90;;;;;;5136499;27;19923;-71
2022/03/03 05:12:22;;;;;;;;;;;0.60;99.90;;;;;;5136499;27;20017;-73
2022/03/03 05:14:48;;;;;;;;;;;1.10;99.90;;;;;;5136597;27;19923;-71
2022/03/03 05:17:13;;;;;;;;;;;1.50;99.90;;;;;;5101039;27;19952;-71
2022/03/03 05:19:39;;;;;;;;;;;0.50;99.90;;;;;;5136520;27;19923;-74
2022/03/03 05:22:04;;;;;;;;;;;0.90;99.90;;;;;;5136339;27;20340;-72
2022/03/03 05:24:30;;;;;;;;;;;2.40;99.90;;;;;;5136346;27;19924;-73
2022/03/03 05:26:55;;;;;;;;;;;0.40;99.90;;;;;;5136192;27;19978;-71
2022/03/03 05:29:21;;;;;;;;;;;0.50;99.90;;;;;;5117723;27;19930;-74
2022/03/03 05:31:46;;;;;;;;;;;0.40;99.90;;;;;;5136340;27;19968;-72
2022/03/03 05:34:12;;;;;;;;;;;0.30;99.90;;;;;;5136187;27;20015;-73
2022/03/03 05:36:41;;;;;;;;;;;0.40;99.90;;;;;;5136076;27;20294;-71
2022/03/03 05:39:07;;;;;;;;;;;0.40;99.90;;;;;;5100548;27;19923;-71
2022/03/03 05:41:34;;;;;;;;;;;0.40;99.90;;;;;;5117847;27;19934;-70
2022/03/03 05:44:00;;;;;;;;;;;0.40;99.90;;;;;;5136190;27;19923;-75
2022/03/03 05:46:25;;;;;;;;;;;-0.40;99.90;;;;;;5100691;27;19923;-71
2022/03/03 05:48:51;;;;;;;;;;;0.40;99.90;;;;;;5117783;27;20294;-73
2022/03/03 05:51:18;;;;;;;;;;;1.20;99.90;;;;;;5135851;27;19931;-71
2022/03/03 05:53:43;;;;;;;;;;;0.30;99.90;;;;;;5135650;27;19966;-71
2022/03/03 05:56:10;;;;;;;;;;;0.40;99.90;;;;;;5100483;27;19974;-73
2022/03/03 05:58:45;;;;;;;;;;;1.00;99.90;;;;;;5135585;27;19923;-71
2022/03/03 06:01:12;;;;;;;;;;;0.30;99.90;;;;;;5151991;27;20431;-71
2022/03/03 06:03:38;;;;;;;;;;;0.30;99.90;;;;;;5135461;27;19930;-70
2022/03/03 06:06:07;;;;;;;;;;;1.20;99.90;;;;;;5135550;27;20397;-71
2022/03/03 06:08:41;;;;;;;;;;;2.30;99.90;;;;;;5100059;27;19927;-73
2022/03/03 06:11:11;;;;;;;;;;;0.20;99.90;;;;;;5116926;27;19978;-72
2022/03/03 06:13:39;;;;;;;;;;;1.90;99.90;;;;;;5151846;27;19924;-74
2022/03/03 06:16:04;;;;;;;;;;;1.00;99.90;;;;;;5135451;27;19985;-72
2022/03/03 06:18:32;;;;;;;;;;;0.20;99.90;;;;;;5135389;27;19971;-72
2022/03/03 06:20:58;;;;;;;;;;;1.80;99.90;;;;;;5135175;27;19930;-71
2022/03/03 06:23:24;;;;;;;;;;;1.80;99.90;;;;;;5151187;27;20398;-71
2022/03/03 06:26:10;;;;;;;;;;;0.90;99.90;;;;;;5135131;27;19937;-71
2022/03/03 06:28:36;;;;;;;;;;;0.20;99.90;;;;;;5115485;27;20381;-70
2022/03/03 06:31:03;;;;;;;;;;;0.20;99.90;;;;;;5135102;27;19924;-70
2022/03/03 06:33:29;;;;;;;;;;;0.10;99.90;;;;;;5135033;27;19931;-71
2022/03/03 06:35:55;;;;;;;;;;;0.10;99.90;;;;;;5134901;27;20290;-71
2022/03/03 06:38:20;;;;;;;;;;;0.60;99.90;;;;;;5134837;27;20309;-70
2022/03/03 06:40:46;;;;;;;;;;;0.20;99.90;;;;;;5134811;27;19976;-71
2022/03/03 06:43:12;;;;;;;;;;;0.20;99.90;;;;;;5117042;27;19924;-70
2022/03/03 06:45:37;;;;;;;;;;;0.20;99.90;;;;;;5116850;27;20285;-73
2022/03/03 06:48:04;;;;;;;;;;;1.40;99.90;;;;;;5134872;27;19928;-71
2022/03/03 06:50:30;;;;;;;;;;;0.20;99.90;;;;;;5116745;27;20354;-70
2022/03/03 06:52:56;;;;;;;;;;;1.10;99.90;;;;;;5134560;27;19968;-74
2022/03/03 06:55:23;;;;;;;;;;;0.30;99.90;;;;;;5151300;27;19924;-71
2022/03/03 06:57:50;;;;;;;;;;;0.20;99.90;;;;;;5134931;27;19962;-73
2022/03/03 07:00:17;;;;;;;;;;;1.70;99.90;;;;;;5116523;28;19924;-70
2022/03/03 07:02:43;;;;;;;;;;;0.30;99.90;;;;;;5134352;28;20429;-71
2022/03/03 07:05:10;;;;;;;;;;;2.30;99.90;;;;;;5134600;28;20030;-70
2022/03/03 07:07:36;;;;;;;;;;;0.30;99.90;;;;;;5116371;28;20026;-70
2022/03/03 07:10:02;;;;;;;;;;;0.30;99.90;;;;;;5134416;28;20398;-72
2022/03/03 07:12:30;;;;;;;;;;;0.40;99.90;;;;;;5151161;27;19929;-70
2022/03/03 07:14:55;;;;;;;;;;;1.90;99.90;;;;;;5134650;28;19924;-70
2022/03/03 07:17:29;;;;;;;;;;;1.90;99.90;;;;;;5116267;28;19949;-71
2022/03/03 07:20:01;;;;;;;;;;;2.70;99.90;;;;;;5116403;28;19962;-72
2022/03/03 07:22:33;;;;;;;;;;;0.60;99.90;;;;;;5116268;28;19927;-72
2022/03/03 07:25:01;;;;;;;;;;;0.60;99.90;;;;;;5134561;28;20010;-71
2022/03/03 07:27:27;;;;;;;;;;;0.60;99.90;;;;;;5115060;28;19930;-71
2022/03/03 07:29:57;;;;;;;;;;;1.40;99.90;;;;;;5134347;28;19923;-71
2022/03/03 07:32:31;;;;;;;;;;;0.70;99.90;;;;;;5098942;28;20014;-71
2022/03/03 07:34:58;;;;;;;;;;;0.70;99.90;;;;;;5115622;28;20367;-69
2022/03/03 07:37:40;;;;;;;;;;;1.60;99.90;;;;;;5115696;28;19934;-72
2022/03/03 07:40:08;;;;;;;;;;;0.90;99.90;;;;;;5134291;27;19930;-73
2022/03/03 07:42:34;;;;;;;;;;;0.90;99.90;;;;;;5120095;27;20010;-70
2022/03/03 07:45:00;;;;;;;;;;;1.80;99.90;;;;;;5138252;27;20015;-72
2022/03/03 07:47:27;;;;;;;;;;;1.00;99.90;;;;;;5138192;27;19924;-70
2022/03/03 07:49:53;;;;;;;;;;;1.90;99.90;;;;;;5119517;27;20446;-70
2022/03/03 07:52:20;;;;;;;;;;;3.00;99.90;;;;;;5138062;27;20382;-72
2022/03/03 07:54:46;;;;;;;;;;;2.40;99.90;;;;;;5120001;27;19931;-74
2022/03/03 07:57:13;;;;;;;;;;;1.20;99.90;;;;;;5137863;27;19923;-71
2022/03/03 07:59:41;;;;;;;;;;;2.70;99.90;;;;;;5119942;27;20022;-71
2022/03/03 08:02:07;;;;;;;;;;;3.00;99.90;;;;;;5119814;27;19948;-70
2022/03/03 08:04:33;;;;;;;;;;;1.30;99.90;;;;;;5119494;27;20018;-70
2022/03/03 08:07:07;;;;;;;;;;;2.40;99.90;;;;;;5119837;27;19927;-75
2022/03/03 08:09:33;;;;;;;;;;;1.40;99.90;;;;;;5137721;27;19924;-70
2022/03/03 08:12:02;;;;;;;;;;;2.40;99.90;;;;;;5137850;27;20018;-70
2022/03/03 08:14:29;;;;;;;;;;;2.30;99.90;;;;;;5137628;27;19930;-70
2022/03/03 08:16:54;;;;;;;;;;;2.50;99.90;;;;;;5153683;27;19972;-71
2022/03/03 08:19:21;;;;;;;;;;;3.30;99.90;;;;;;5119267;27;19924;-70
2022/03/03 08:21:47;;;;;;;;;;;2.80;99.90;;;;;;5154026;27;19927;-71
2022/03/03 08:24:13;;;;;;;;;;;1.70;99.90;;;;;;5153660;27;20010;-74
2022/03/03 08:26:40;;;;;;;;;;;1.70;99.90;;;;;;5153626;27;20417;-72
2022/03/03 08:29:06;;;;;;;;;;;3.30;99.90;;;;;;5137427;27;20014;-70
2022/03/03 08:31:57;;;;;;;;;;;1.90;99.90;;;;;;5137345;27;20007;-68
2022/03/03 08:34:23;;;;;;;;;;;1.50;99.90;;;;;;5131760;27;19985;-70
2022/03/03 08:36:54;;;;;;;;;;;2.00;99.90;;;;;;5119062;27;20402;-68
2022/03/03 08:39:23;;;;;;;;;;;2.00;99.90;;;;;;5137213;27;19923;-70
2022/03/03 08:41:51;;;;;;;;;;;3.00;99.90;;;;;;5137158;27;19924;-71
2022/03/03 08:44:17;;;;;;;;;;;3.30;99.90;;;;;;5118681;27;20010;-68
2022/03/03 08:46:43;;;;;;;;;;;3.20;99.90;;;;;;5119058;27;20014;-68
2022/03/03 08:49:10;;;;;;;;;;;4.10;99.90;;;;;;5153238;27;20019;-67
2022/03/03 08:51:36;;;;;;;;;;;2.40;99.90;;;;;;5136490;27;19975;-68
2022/03/03 08:54:01;;;;;;;;;;;2.40;99.90;;;;;;5136733;27;19923;-69
2022/03/03 08:56:27;;;;;;;;;;;2.40;99.90;;;;;;5117919;27;19923;-71
2022/03/03 08:58:53;;;;;;;;;;;2.50;99.90;;;;;;5153186;27;19930;-71
2022/03/03 09:01:19;;;;;;;;;;;2.80;99.90;;;;;;5118365;27;19923;-69
2022/03/03 09:03:44;;;;;;;;;;;3.00;99.90;;;;;;5125367;27;19927;-70
2022/03/03 09:06:13;;;;;;;;;;;2.70;99.90;;;;;;5115911;28;19928;-68
2022/03/03 09:08:39;;;;;;;;;;;2.80;99.90;;;;;;5097465;28;19931;-68
2022/03/03 09:11:04;;;;;;;;;;;3.30;99.90;;;;;;5097433;28;19927;-68
2022/03/03 09:13:30;;;;;;;;;;;2.90;99.90;;;;;;5097768;28;20011;-70
2022/03/03 09:15:56;;;;;;;;;;;2.40;99.90;;;;;;5115551;28;19931;-68
2022/03/03 09:18:21;;;;;;;;;;;3.50;99.90;;;;;;5097881;28;19931;-68
2022/03/03 09:20:47;;;;;;;;;;;3.20;99.90;;;;;;5115896;28;19924;-68
2022/03/03 09:23:13;;;;;;;;;;;3.20;99.90;;;;;;5097782;28;19924;-68
2022/03/03 09:25:39;;;;;;;;;;;3.60;99.90;;;;;;5115689;28;19924;-70
2022/03/03 09:28:05;;;;;;;;;;;5.00;99.90;;;;;;5115517;28;20283;-68
2022/03/03 09:30:32;;;;;;;;;;;3.40;99.90;;;;;;5115620;28;19930;-70
2022/03/03 09:32:57;;;;;;;;;;;4.60;99.90;;;;;;5115279;28;19923;-68
2022/03/03 09:35:26;;;;;;;;;;;3.70;99.90;;;;;;5115198;28;20053;-70
2022/03/03 09:38:10;;;;;;;;;;;3.60;99.90;;;;;;5115108;28;20024;-70
2022/03/03 09:40:35;;;;;;;;;;;3.70;99.90;;;;;;5115342;28;19931;-72
2022/03/03 09:43:02;;;;;;;;;;;4.70;99.90;;;;;;5115183;28;19924;-68
2022/03/03 09:45:28;;;;;;;;;;;4.50;99.90;;;;;;5115200;28;20023;-69
2022/03/03 09:47:55;;;;;;;;;;;4.30;99.90;;;;;;5115147;28;19984;-68
2022/03/03 09:50:24;;;;;;;;;;;4.60;99.90;;;;;;5096894;28;19946;-69
2022/03/03 09:52:50;;;;;;;;;;;4.20;99.90;;;;;;5115045;28;19924;-68
2022/03/03 09:55:16;;;;;;;;;;;4.30;99.90;;;;;;5114849;28;19946;-72
2022/03/03 09:57:42;;;;;;;;;;;4.40;99.90;;;;;;5114689;28;19924;-72
2022/03/03 10:00:11;;;;;;;;;;;4.90;99.90;;;;;;5096046;28;20328;-72
2022/03/03 10:02:55;;;;;;;;;;;4.60;99.90;;;;;;5114629;28;19931;-69
2022/03/03 10:05:34;;;;;;;;;;;4.60;99.90;;;;;;5099197;28;19967;-70
2022/03/03 10:08:01;;;;;;;;;;;3.70;99.90;;;;;;5094227;28;19928;-66
2022/03/03 10:10:46;;;;;;;;;;;4.90;99.90;;;;;;5093878;28;19919;-69
2022/03/03 10:13:16;;;;;;;;;;;5.00;99.90;;;;;;5076530;28;20077;-70
2022/03/03 10:15:44;;;;;;;;;;;5.20;99.90;;;;;;5094344;28;20029;-69
2022/03/03 10:18:11;;;;;;;;;;;5.20;99.90;;;;;;5075742;28;19924;-69
2022/03/03 10:20:58;;;;;;;;;;;5.30;99.90;;;;;;5093933;28;19924;-69
2022/03/03 10:23:25;;;;;;;;;;;5.70;99.90;;;;;;5075605;28;19971;-69
2022/03/03 10:25:51;;;;;;;;;;;5.80;99.90;;;;;;5094076;28;20003;-69
2022/03/03 10:28:18;;;;;;;;;;;5.60;99.90;;;;;;5094107;28;20326;-69
2022/03/03 10:31:02;;;;;;;;;;;5.80;99.90;;;;;;5094042;28;19931;-69
2022/03/03 10:33:31;;;;;;;;;;;5.80;99.90;;;;;;5093657;28;19924;-69
2022/03/03 10:36:13;;;;;;;;;;;6.00;99.90;;;;;;5093965;28;19924;-69
2022/03/03 10:38:44;;;;;;;;;;;6.10;99.90;;;;;;5075969;28;19928;-71
2022/03/03 10:41:29;;;;;;;;;;;6.20;99.90;;;;;;5094030;28;19928;-70
2022/03/03 10:43:55;;;;;;;;;;;6.30;99.90;;;;;;5093774;28;19931;-69
2022/03/03 10:46:20;;;;;;;;;;;6.40;99.90;;;;;;5075664;28;19994;-69
2022/03/03 10:48:46;;;;;;;;;;;6.40;99.90;;;;;;5093949;28;19924;-69
2022/03/03 10:51:15;;;;;;;;;;;6.50;99.90;;;;;;5093926;28;19924;-69
2022/03/03 10:53:42;;;;;;;;;;;6.60;99.90;;;;;;5093383;28;20471;-69
2022/03/03 10:56:18;;;;;;;;;;;6.70;99.90;;;;;;5075816;28;19924;-68
2022/03/03 10:58:47;;;;;;;;;;;6.80;99.90;;;;;;5093608;28;19924;-69
2022/03/03 11:01:14;;;;;;;;;;;6.90;99.90;;;;;;5093637;28;20015;-71
2022/03/03 11:03:40;;;;;;;;;;;7.00;99.90;;;;;;5109908;28;20356;-70
2022/03/03 11:06:07;;;;;;;;;;;7.10;99.90;;;;;;5116461;28;19982;-69
2022/03/03 11:08:34;;;;;;;;;;;7.20;99.90;;;;;;5134495;28;20018;-69
2022/03/03 11:11:00;;;;;;;;;;;7.30;99.90;;;;;;5116510;28;19923;-69
2022/03/03 11:13:26;;;;;;;;;;;7.40;99.90;;;;;;5134353;28;19930;-71
2022/03/03 11:15:52;;;;;;;;;;;7.50;99.90;;;;;;5119498;27;19923;-72
2022/03/03 11:18:18;;;;;;;;;;;7.50;99.90;;;;;;5120490;27;19947;-68
2022/03/03 11:20:51;;;;;;;;;;;7.60;99.90;;;;;;5137484;27;20022;-73
2022/03/03 11:23:34;;;;;;;;;;;7.70;99.90;;;;;;5146895;27;19927;-72
2022/03/03 11:26:00;;;;;;;;;;;7.80;99.90;;;;;;5135408;27;20302;-69
2022/03/03 11:28:33;;;;;;;;;;;9.00;99.90;;;;;;5137006;27;19927;-70
2022/03/03 11:31:19;;;;;;;;;;;9.00;99.90;;;;;;5136863;27;20438;-71
2022/03/03 11:33:44;;;;;;;;;;;7.90;99.90;;;;;;5121427;27;20310;-73
2022/03/03 11:36:17;;;;;;;;;;;8.10;93.10;;;;;;5122138;27;19924;-70
2022/03/03 11:38:44;;;;;;;;;;;8.10;99.70;;;;;;5138045;27;20403;-73
2022/03/03 11:41:10;;;;;;;;;;;8.20;99.90;;;;;;5120362;27;19923;-70
2022/03/03 11:43:46;;;;;;;;;;;8.30;99.90;;;;;;5138382;27;19923;-74
2022/03/03 11:46:12;;;;;;;;;;;8.30;99.70;;;;;;5103171;27;19923;-73
2022/03/03 11:48:39;;;;;;;;;;;8.30;92.30;;;;;;5119768;27;19931;-75
2022/03/03 11:51:23;;;;;;;;;;;8.30;99.90;;;;;;5137934;27;19980;-70
2022/03/03 11:53:50;;;;;;;;;;;8.30;99.90;;;;;;5138139;27;19923;-70
2022/03/03 11:56:16;;;;;;;;;;;8.40;88.90;;;;;;5138023;27;19978;-73
2022/03/03 11:58:41;;;;;;;;;;;8.40;80.70;;;;;;5119783;27;19930;-70
2022/03/03 12:01:12;;;;;;;;;;;9.20;99.90;;;;;;5137983;27;20386;-70
2022/03/03 12:03:56;;;;;;;;;;;8.50;99.90;;;;;;5137953;27;20370;-70
2022/03/03 12:06:34;;;;;;;;;;;8.50;99.90;;;;;;5137864;27;19924;-72
2022/03/03 12:09:14;;;;;;;;;;;8.60;99.20;;;;;;5137711;27;19923;-70
2022/03/03 12:11:39;;;;;;;;;;;8.60;93.80;;;;;;5119697;27;19923;-70
2022/03/03 12:14:25;;;;;;;;;;;8.60;93.40;;;;;;5154034;27;19923;-70
2022/03/03 12:16:50;;;;;;;;;;;8.70;90.30;;;;;;5137333;27;20330;-73
2022/03/03 12:19:16;;;;;;;;;;;7.40;93.20;;;;;;5137593;27;19976;-71
2022/03/03 12:21:46;;;;;;;;;;;8.70;99.90;;;;;;5137585;27;19930;-71
2022/03/03 12:24:12;;;;;;;;;;;8.80;98.50;;;;;;5137322;27;19923;-70
2022/03/03 12:27:01;;;;;;;;;;;8.80;92.40;;;;;;5136391;27;20449;-70
2022/03/03 12:29:33;;;;;;;;;;;8.90;94.20;;;;;;5137652;27;20030;-71
2022/03/03 12:32:18;;;;;;;;;;;8.90;98.20;;;;;;5137421;27;19923;-76
2022/03/03 12:34:45;;;;;;;;;;;9.00;90.50;;;;;;5137066;27;20432;-71
2022/03/03 12:37:11;;;;;;;;;;;9.00;96.90;;;;;;5153311;27;19924;-71
2022/03/03 12:39:36;;;;;;;;;;;9.20;99.90;;;;;;5137035;27;20301;-73
2022/03/03 12:42:02;;;;;;;;;;;9.10;90.40;;;;;;5136969;27;19923;-71
2022/03/03 12:44:34;;;;;;;;;;;9.20;94.20;;;;;;5137231;27;19923;-71
2022/03/03 12:46:59;;;;;;;;;;;9.20;92.60;;;;;;5137145;27;20339;-75
2022/03/03 12:49:25;;;;;;;;;;;8.90;92.00;;;;;;5136915;27;20026;-70
2022/03/03 12:51:50;;;;;;;;;;;9.30;92.90;;;;;;5136934;27;19924;-70
2022/03/03 12:54:16;;;;;;;;;;;9.30;91.00;;;;;;5136696;27;20067;-72
2022/03/03 12:56:42;;;;;;;;;;;10.10;99.90;;;;;;5136571;27;19923;-71
2022/03/03 12:59:08;;;;;;;;;;;9.30;98.30;;;;;;5118683;27;19924;-75
2022/03/03 13:01:36;;;;;;;;;;;9.30;76.60;;;;;;5136861;27;19950;-72
2022/03/03 13:04:03;;;;;;;;;;;9.30;95.40;;;;;;5136972;27;20004;-71
2022/03/03 13:06:29;;;;;;;;;;;9.30;99.00;;;;;;5136470;27;20401;-72
2022/03/03 13:09:02;;;;;;;;;;;9.30;94.10;;;;;;5136491;27;19928;-71
2022/03/03 13:11:28;;;;;;;;;;;9.20;89.00;;;;;;5136744;27;19927;-74
2022/03/03 13:13:56;;;;;;;;;;;9.30;80.60;;;;;;5118709;27;19931;-75
2022/03/03 13:16:23;;;;;;;;;;;9.00;72.60;;;;;;5136549;27;20323;-74
2022/03/03 13:18:49;;;;;;;;;;;9.40;63.10;;;;;;5101433;27;20374;-71
2022/03/03 13:21:16;;;;;;;;;;;8.30;66.60;;;;;;5136314;27;20018;-71
2022/03/03 13:23:45;;;;;;;;;;;9.30;71.00;;;;;;5136233;27;19930;-73
2022/03/03 13:26:12;;;;;;;;;;;9.30;66.80;;;;;;5136122;27;20017;-75
2022/03/03 13:28:43;;;;;;;;;;;9.30;65.40;;;;;;5117961;27;20014;-73
2022/03/03 13:31:09;;;;;;;;;;;9.30;65.40;;;;;;5136227;27;19924;-74
2022/03/03 13:33:41;;;;;;;;;;;8.30;67.90;;;;;;5136089;27;19927;-73
2022/03/03 13:36:11;;;;;;;;;;;9.30;72.70;;;;;;5136009;27;19923;-71
2022/03/03 13:38:36;;;;;;;;;;;9.20;74.00;;;;;;5136101;27;20014;-71
2022/03/03 13:41:18;;;;;;;;;;;9.20;70.00;;;;;;5135727;27;20035;-71
2022/03/03 13:43:43;;;;;;;;;;;9.40;74.90;;;;;;5100934;27;19923;-71
2022/03/03 13:46:09;;;;;;;;;;;9.30;70.70;;;;;;5117737;27;19923;-70
2022/03/03 13:48:34;;;;;;;;;;;9.40;67.40;;;;;;5135834;27;20014;-72
2022/03/03 13:51:01;;;;;;;;;;;9.30;77.90;;;;;;5135591;27;19976;-72
2022/03/03 13:53:27;;;;;;;;;;;9.20;71.20;;;;;;5135862;27;19924;-73
2022/03/03 13:56:02;;;;;;;;;;;10.00;69.00;;;;;;5135683;27;19930;-72
2022/03/03 13:58:28;;;;;;;;;;;9.20;70.00;;;;;;5135655;27;19923;-69
2022/03/03 14:00:54;;;;;;;;;;;9.40;67.80;;;;;;5117491;27;19930;-72
2022/03/03 14:03:20;;;;;;;;;;;9.20;72.50;;;;;;5117007;27;19924;-74
2022/03/03 14:05:49;;;;;;;;;;;9.20;68.90;;;;;;5135345;27;19976;-71
2022/03/03 14:08:27;;;;;;;;;;;9.30;68.60;;;;;;5135593;27;19927;-71
2022/03/03 14:10:59;;;;;;;;;;;9.20;68.00;;;;;;5135158;27;20139;-71
2022/03/03 14:13:30;;;;;;;;;;;9.20;69.10;;;;;;5117118;27;19976;-71
2022/03/03 14:15:57;;;;;;;;;;;9.30;70.50;;;;;;5135308;27;19924;-72
2022/03/03 14:18:24;;;;;;;;;;;9.30;71.00;;;;;;5135033;27;19952;-74
2022/03/03 14:20:52;;;;;;;;;;;9.40;67.50;;;;;;5135396;27;19923;-71
2022/03/03 14:23:23;;;;;;;;;;;9.30;73.60;;;;;;5117153;27;19930;-71
2022/03/03 14:25:49;;;;;;;;;;;9.30;72.00;;;;;;5134993;27;20399;-71
2022/03/03 14:28:16;;;;;;;;;;;9.30;67.70;;;;;;5099982;27;19969;-71
2022/03/03 14:30:43;;;;;;;;;;;9.30;66.50;;;;;;5116958;27;20320;-71
2022/03/03 14:33:09;;;;;;;;;;;10.70;66.60;;;;;;5134940;27;20517;-71